createdAt,value
2019-02-25T00:01:35.778Z,4.43
2019-02-25T00:04:06.821Z,3.20
2019-02-25T00:06:37.077Z,3.30
2019-02-25T00:09:07.712Z,3.40
2019-02-25T00:11:38.141Z,3.60
2019-02-25T00:14:08.877Z,3.07
2019-02-25T00:16:39.599Z,3.40
2019-02-25T00:19:09.907Z,3.10
2019-02-25T00:21:40.370Z,3.50
2019-02-25T00:24:10.648Z,3.70
2019-02-25T00:26:40.992Z,3.50
2019-02-25T00:29:11.361Z,3.40
2019-02-25T00:31:41.628Z,3.93
2019-02-25T00:34:11.923Z,3.53
2019-02-25T00:36:42.285Z,3.40
2019-02-25T00:39:12.617Z,3.33
2019-02-25T00:41:43.653Z,3.33
2019-02-25T00:44:14.509Z,3.60
2019-02-25T00:46:45.334Z,2.83
2019-02-25T00:49:16.187Z,3.07
2019-02-25T00:51:46.441Z,2.80
2019-02-25T00:54:16.859Z,2.90
2019-02-25T00:56:48.754Z,2.50
2019-02-25T00:59:19.089Z,2.67
2019-02-25T01:01:50.027Z,2.60
2019-02-25T01:04:20.764Z,2.80
2019-02-25T01:06:51.255Z,2.30
2019-02-25T01:09:21.626Z,2.33
2019-02-25T01:11:51.941Z,2.30
2019-02-25T01:14:22.332Z,2.93
2019-02-25T01:16:52.813Z,2.47
2019-02-25T01:19:23.106Z,2.93
2019-02-25T01:21:53.477Z,2.70
2019-02-25T01:24:23.914Z,2.50
2019-02-25T01:26:54.258Z,2.73
2019-02-25T01:29:24.799Z,2.50
2019-02-25T01:31:55.093Z,2.90
2019-02-25T01:34:25.541Z,3.00
2019-02-25T01:36:55.905Z,2.20
2019-02-25T01:39:26.364Z,2.60
2019-02-25T01:41:56.747Z,2.50
2019-02-25T01:44:27.142Z,2.80
2019-02-25T01:46:57.437Z,3.20
2019-02-25T01:49:27.734Z,3.57
2019-02-25T01:51:58.069Z,3.90
2019-02-25T01:54:28.356Z,3.60
2019-02-25T01:56:58.650Z,3.10
2019-02-25T01:59:28.941Z,2.97
2019-02-25T02:01:59.380Z,2.97
2019-02-25T02:04:29.673Z,2.80
2019-02-25T02:07:00.126Z,2.50
2019-02-25T02:09:30.426Z,2.67
2019-02-25T02:12:00.761Z,3.03
2019-02-25T02:14:31.068Z,2.90
2019-02-25T02:17:01.358Z,3.47
2019-02-25T02:19:31.763Z,3.47
2019-02-25T02:22:02.056Z,3.23
2019-02-25T02:24:32.358Z,2.80
2019-02-25T02:27:02.682Z,2.80
2019-02-25T02:29:32.986Z,2.70
2019-02-25T02:32:03.325Z,3.20
2019-02-25T02:34:33.637Z,3.07
2019-02-25T02:37:03.929Z,3.27
2019-02-25T02:39:34.319Z,3.43
2019-02-25T02:42:23.625Z,3.57
2019-02-25T02:44:56.590Z,3.07
2019-02-25T02:47:59.785Z,3.00
2019-02-25T02:50:30.090Z,2.90
2019-02-25T02:53:00.367Z,3.13
2019-02-25T02:55:30.696Z,2.90
2019-02-25T02:58:01.125Z,3.20
2019-02-25T03:00:31.500Z,3.20
2019-02-25T03:03:01.782Z,2.90
2019-02-25T03:05:32.098Z,3.07
2019-02-25T03:08:02.374Z,3.10
2019-02-25T03:10:32.681Z,3.47
2019-02-25T03:13:03.034Z,3.50
2019-02-25T03:15:33.368Z,3.03
2019-02-25T03:18:03.642Z,2.93
2019-02-25T03:20:33.923Z,2.93
2019-02-25T03:23:04.204Z,3.47
2019-02-25T03:25:34.490Z,3.40
2019-02-25T03:28:04.767Z,3.17
2019-02-25T03:30:35.046Z,2.83
2019-02-25T03:33:05.344Z,3.17
2019-02-25T03:35:35.676Z,3.60
2019-02-25T03:38:05.959Z,3.47
2019-02-25T03:40:36.313Z,3.47
2019-02-25T03:43:06.732Z,3.20
2019-02-25T03:45:37.035Z,3.53
2019-02-25T03:48:07.361Z,3.57
2019-02-25T03:50:37.816Z,3.23
2019-02-25T03:53:08.107Z,3.30
2019-02-25T03:55:38.522Z,3.80
2019-02-25T03:58:08.958Z,3.50
2019-02-25T04:00:40.009Z,4.20
2019-02-25T04:03:10.289Z,3.40
2019-02-25T04:05:40.651Z,3.90
2019-02-25T04:08:11.140Z,3.20
2019-02-25T04:10:41.449Z,3.00
2019-02-25T04:13:11.728Z,3.30
2019-02-25T04:15:44.216Z,2.60
2019-02-25T04:18:14.490Z,3.10
2019-02-25T04:20:44.792Z,3.80
2019-02-25T04:23:15.094Z,4.50
2019-02-25T04:25:45.388Z,3.80
2019-02-25T04:28:15.690Z,3.33
2019-02-25T04:30:46.031Z,3.00
2019-02-25T04:33:16.370Z,2.93
2019-02-25T04:35:46.679Z,2.97
2019-02-25T04:38:16.953Z,3.07
2019-02-25T04:40:47.293Z,4.33
2019-02-25T04:43:17.569Z,3.37
2019-02-25T04:45:47.943Z,2.97
2019-02-25T04:48:18.215Z,3.00
2019-02-25T04:50:48.528Z,2.83
2019-02-25T04:53:18.881Z,2.93
2019-02-25T04:55:49.199Z,3.10
2019-02-25T04:58:19.491Z,3.33
2019-02-25T05:00:49.880Z,3.53
2019-02-25T05:03:20.252Z,3.13
2019-02-25T05:05:50.599Z,3.23
2019-02-25T05:08:20.984Z,3.70
2019-02-25T05:10:51.298Z,3.37
2019-02-25T05:13:21.568Z,3.30
2019-02-25T05:15:51.948Z,3.00
2019-02-25T05:18:22.312Z,3.57
2019-02-25T05:20:52.610Z,3.13
2019-02-25T05:23:22.902Z,3.20
2019-02-25T05:25:53.278Z,3.07
2019-02-25T05:28:23.567Z,3.57
2019-02-25T05:30:53.950Z,3.10
2019-02-25T05:33:24.233Z,3.53
2019-02-25T05:35:54.528Z,3.43
2019-02-25T05:38:24.908Z,3.47
2019-02-25T05:40:55.214Z,3.83
2019-02-25T05:43:25.493Z,5.13
2019-02-25T05:45:55.801Z,3.80
2019-02-25T05:48:26.151Z,3.67
2019-02-25T05:50:56.541Z,3.60
2019-02-25T05:53:26.834Z,3.40
2019-02-25T05:55:57.157Z,3.50
2019-02-25T05:58:27.435Z,3.17
2019-02-25T06:00:57.795Z,3.40
2019-02-25T06:03:28.084Z,3.50
2019-02-25T06:05:58.410Z,3.90
2019-02-25T06:08:28.708Z,3.33
2019-02-25T06:10:59.066Z,3.00
2019-02-25T06:13:29.365Z,3.47
2019-02-25T06:15:59.694Z,3.27
2019-02-25T06:18:29.958Z,3.70
2019-02-25T06:21:00.242Z,5.37
2019-02-25T06:23:30.536Z,3.83
2019-02-25T06:26:00.806Z,3.73
2019-02-25T06:28:31.159Z,3.60
2019-02-25T06:31:01.437Z,3.63
2019-02-25T06:33:31.706Z,3.73
2019-02-25T06:36:01.990Z,3.53
2019-02-25T06:38:32.331Z,3.80
2019-02-25T06:41:02.614Z,2.70
2019-02-25T06:43:32.888Z,3.50
2019-02-25T06:46:03.193Z,3.87
2019-02-25T06:48:33.481Z,3.63
2019-02-25T06:51:03.763Z,4.00
2019-02-25T06:53:34.041Z,3.50
2019-02-25T06:56:04.400Z,4.20
2019-02-25T06:58:34.661Z,4.20
2019-02-25T07:01:04.938Z,4.50
2019-02-25T07:03:35.208Z,3.67
2019-02-25T07:06:19.729Z,3.67
2019-02-25T07:09:07.784Z,4.10
2019-02-25T07:12:06.273Z,4.20
2019-02-25T07:14:55.599Z,4.10
2019-02-25T07:17:43.854Z,3.43
2019-02-25T07:20:27.562Z,3.53
2019-02-25T07:23:26.341Z,3.67
2019-02-25T07:26:09.014Z,4.20
2019-02-25T07:28:57.575Z,3.93
2019-02-25T07:31:45.951Z,5.33
2019-02-25T07:34:38.374Z,5.07
2019-02-25T07:37:27.909Z,3.90
2019-02-25T07:40:06.805Z,4.27
2019-02-25T07:42:56.146Z,4.10
2019-02-25T07:45:57.689Z,3.73
2019-02-25T07:48:46.749Z,3.77
2019-02-25T07:51:31.869Z,3.73
2019-02-25T07:54:07.625Z,3.87
2019-02-25T07:57:06.001Z,3.73
2019-02-25T07:59:48.725Z,3.90
2019-02-25T08:02:32.062Z,3.57
2019-02-25T08:05:11.176Z,3.73
2019-02-25T08:08:09.845Z,3.50
2019-02-25T08:11:00.937Z,3.80
2019-02-25T08:13:49.887Z,3.70
2019-02-25T08:16:27.380Z,3.60
2019-02-25T08:19:19.768Z,3.13
2019-02-25T08:22:18.392Z,3.10
2019-02-25T08:25:10.624Z,3.10
2019-02-25T08:27:47.780Z,3.50
2019-02-25T08:30:25.664Z,3.30
2019-02-25T08:33:10.548Z,3.80
2019-02-25T08:36:43.643Z,3.80
2019-02-25T08:39:48.700Z,3.70
2019-02-25T08:42:45.357Z,3.50
2019-02-25T08:45:24.674Z,3.60
2019-02-25T08:48:17.289Z,3.57
2019-02-25T08:50:47.588Z,3.53
2019-02-25T08:53:17.862Z,3.40
2019-02-25T08:55:48.224Z,3.80
2019-02-25T08:58:18.497Z,3.70
2019-02-25T09:00:48.812Z,3.77
2019-02-25T09:03:19.089Z,4.00
2019-02-25T09:05:49.455Z,3.70
2019-02-25T09:08:19.764Z,3.93
2019-02-25T09:10:50.074Z,4.70
2019-02-25T09:13:20.488Z,4.60
2019-02-25T09:15:50.867Z,4.70
2019-02-25T09:18:21.147Z,5.03
2019-02-25T09:20:51.461Z,4.87
2019-02-25T09:23:21.876Z,4.97
2019-02-25T09:25:52.185Z,4.60
2019-02-25T09:28:22.500Z,4.80
2019-02-25T09:30:52.795Z,4.50
2019-02-25T09:33:23.174Z,4.17
2019-02-25T09:35:53.527Z,4.13
2019-02-25T09:38:23.800Z,4.30
2019-02-25T09:40:54.077Z,4.20
2019-02-25T09:43:24.498Z,4.17
2019-02-25T09:45:54.872Z,4.60
2019-02-25T09:48:25.196Z,4.03
2019-02-25T09:50:55.507Z,4.47
2019-02-25T09:53:27.261Z,4.43
2019-02-25T09:55:57.608Z,4.43
2019-02-25T09:58:27.883Z,4.80
2019-02-25T10:00:58.182Z,4.27
2019-02-25T10:03:28.633Z,4.23
2019-02-25T10:05:58.531Z,4.50
2019-02-25T10:10:32.615Z,4.23
2019-02-25T10:13:02.882Z,4.43
2019-02-25T10:15:33.149Z,4.20
2019-02-25T10:18:03.441Z,3.90
2019-02-25T10:20:33.719Z,4.03
2019-02-25T10:23:05.303Z,4.60
2019-02-25T10:25:35.599Z,3.90
2019-02-25T10:28:05.973Z,4.53
2019-02-25T10:30:36.305Z,4.00
2019-02-25T10:33:06.580Z,4.00
2019-02-25T10:35:36.883Z,4.10
2019-02-25T10:38:06.780Z,3.77
2019-02-25T10:40:37.119Z,4.27
2019-02-25T10:43:07.607Z,3.90
2019-02-25T10:45:41.159Z,4.20
2019-02-25T10:48:15.262Z,3.90
2019-02-25T10:50:45.764Z,3.67
2019-02-25T10:53:17.782Z,4.03
2019-02-25T10:56:02.285Z,3.87
2019-02-25T10:58:33.639Z,3.80
2019-02-25T11:01:13.409Z,3.70
2019-02-25T11:03:45.147Z,3.30
2019-02-25T11:06:18.327Z,3.50
2019-02-25T11:08:54.415Z,3.43
2019-02-25T11:11:28.993Z,3.63
2019-02-25T11:14:00.853Z,3.33
2019-02-25T11:16:31.232Z,3.30
2019-02-25T11:19:01.501Z,3.20
2019-02-25T11:21:32.916Z,3.00
2019-02-25T11:24:07.738Z,3.10
2019-02-25T11:26:38.424Z,2.70
2019-02-25T11:29:10.141Z,2.87
2019-02-25T11:31:41.540Z,2.80
2019-02-25T11:34:11.821Z,2.77
2019-02-25T11:36:42.137Z,3.00
2019-02-25T11:39:13.379Z,2.87
2019-02-25T11:41:43.679Z,3.03
2019-02-25T11:44:13.951Z,3.27
2019-02-25T11:46:44.266Z,2.73
2019-02-25T11:49:14.540Z,3.00
2019-02-25T11:51:44.876Z,2.70
2019-02-25T11:54:15.216Z,3.00
2019-02-25T11:56:45.533Z,3.20
2019-02-25T11:59:15.810Z,3.00
2019-02-25T12:01:46.130Z,2.40
2019-02-25T12:04:16.408Z,2.53
2019-02-25T12:06:46.714Z,2.60
2019-02-25T12:09:17.052Z,2.00
2019-02-25T12:11:47.361Z,1.97
2019-02-25T12:14:17.716Z,1.97
2019-02-25T12:16:48.029Z,1.83
2019-02-25T12:19:18.334Z,2.10
2019-02-25T12:21:48.609Z,1.80
2019-02-25T12:24:18.961Z,2.00
2019-02-25T12:26:49.228Z,1.70
2019-02-25T12:29:19.596Z,1.37
2019-02-25T12:31:49.895Z,1.50
2019-02-25T12:34:20.232Z,1.30
2019-02-25T12:36:50.541Z,1.20
2019-02-25T12:39:21.096Z,1.10
2019-02-25T12:41:51.456Z,0.93
2019-02-25T12:44:21.886Z,1.20
2019-02-25T12:46:52.159Z,1.10
2019-02-25T12:49:22.434Z,1.10
2019-02-25T12:51:52.711Z,0.90
2019-02-25T12:54:22.997Z,1.00
2019-02-25T12:56:53.252Z,1.10
2019-02-25T12:59:23.542Z,1.40
2019-02-25T13:01:53.825Z,1.40
2019-02-25T13:04:24.091Z,1.13
2019-02-25T13:06:54.823Z,1.00
2019-02-25T13:09:25.252Z,1.10
2019-02-25T13:11:55.511Z,1.10
2019-02-25T13:14:25.822Z,0.90
2019-02-25T13:16:56.089Z,0.70
2019-02-25T13:19:26.369Z,0.60
2019-02-25T13:21:56.650Z,0.47
2019-02-25T13:24:28.383Z,0.90
2019-02-25T13:27:00.553Z,0.50
2019-02-25T13:29:30.868Z,0.50
2019-02-25T13:32:01.249Z,0.63
2019-02-25T13:34:31.529Z,0.67
2019-02-25T13:37:01.810Z,0.50
2019-02-25T13:39:32.081Z,0.60
2019-02-25T13:42:02.411Z,0.50
2019-02-25T13:44:32.717Z,0.50
2019-02-25T13:47:02.985Z,0.50
2019-02-25T13:49:33.277Z,0.57
2019-02-25T13:52:03.571Z,0.43
2019-02-25T13:54:34.094Z,0.40
2019-02-25T13:57:04.360Z,0.40
2019-02-25T13:59:34.655Z,0.57
2019-02-25T14:02:05.009Z,0.40
2019-02-25T14:04:35.343Z,0.67
2019-02-25T14:07:05.627Z,0.80
2019-02-25T14:09:36.135Z,0.93
2019-02-25T14:12:06.060Z,0.70
2019-02-25T14:14:36.532Z,0.90
2019-02-25T14:17:07.098Z,0.70
2019-02-25T14:19:37.419Z,0.90
2019-02-25T14:22:07.690Z,1.37
2019-02-25T14:24:38.536Z,1.20
2019-02-25T14:27:11.779Z,0.73
2019-02-25T14:29:44.655Z,1.07
2019-02-25T14:32:15.418Z,1.40
2019-02-25T14:34:46.465Z,1.37
2019-02-25T14:37:19.244Z,1.40
2019-02-25T14:39:53.622Z,1.30
2019-02-25T14:42:23.761Z,1.47
2019-02-25T14:44:54.462Z,1.40
2019-02-25T14:47:30.490Z,1.47
2019-02-25T14:49:57.919Z,1.60
2019-02-25T14:52:29.310Z,1.80
2019-02-25T14:55:01.391Z,1.83
2019-02-25T14:57:33.340Z,2.20
2019-02-25T15:00:05.060Z,2.17
2019-02-25T15:02:35.387Z,2.60
2019-02-25T15:05:06.205Z,2.63
2019-02-25T15:07:36.496Z,2.47
2019-02-25T15:10:08.484Z,2.67
2019-02-25T15:12:39.928Z,2.20
2019-02-25T15:15:11.684Z,2.23
2019-02-25T15:17:43.665Z,2.00
2019-02-25T15:20:16.368Z,2.10
2019-02-25T15:22:46.292Z,1.80
2019-02-25T15:25:16.899Z,1.83
2019-02-25T15:27:47.404Z,1.90
2019-02-25T15:30:20.712Z,1.70
2019-02-25T15:32:58.431Z,1.93
2019-02-25T15:35:29.169Z,1.93
2019-02-25T15:37:58.336Z,2.50
2019-02-25T15:40:29.583Z,3.03
2019-02-25T15:43:05.409Z,2.57
2019-02-25T15:45:38.371Z,2.17
2019-02-25T15:48:13.395Z,1.60
2019-02-25T15:50:46.129Z,1.67
2019-02-25T15:53:16.229Z,1.43
2019-02-25T15:55:46.984Z,1.80
2019-02-25T15:58:17.927Z,1.80
2019-02-25T16:00:48.553Z,1.33
2019-02-25T16:03:20.922Z,1.60
2019-02-25T16:05:54.479Z,1.60
2019-02-25T16:08:23.840Z,2.33
2019-02-25T16:10:56.125Z,2.10
2019-02-25T16:13:27.951Z,2.50
2019-02-25T16:15:58.349Z,2.40
2019-02-25T16:18:28.664Z,3.10
2019-02-25T16:20:59.738Z,2.53
2019-02-25T16:23:32.138Z,2.30
2019-02-25T16:26:02.213Z,3.07
2019-02-25T16:28:33.944Z,4.57
2019-02-25T16:31:05.953Z,5.23
2019-02-25T16:33:36.437Z,2.37
2019-02-25T16:36:07.931Z,1.70
2019-02-25T16:38:39.099Z,2.00
2019-02-25T16:41:10.285Z,2.50
2019-02-25T16:43:40.997Z,3.90
2019-02-25T16:46:15.225Z,5.83
2019-02-25T16:48:44.013Z,8.47
2019-02-25T16:51:14.324Z,4.73
2019-02-25T16:53:45.557Z,4.20
2019-02-25T16:56:16.672Z,4.00
2019-02-25T16:58:47.707Z,4.50
2019-02-25T17:01:18.691Z,4.53
2019-02-25T17:03:49.049Z,4.30
2019-02-25T17:06:19.407Z,2.90
2019-02-25T17:08:50.940Z,2.30
2019-02-25T17:11:21.937Z,3.43
2019-02-25T17:13:53.020Z,12.50
2019-02-25T17:16:24.294Z,10.03
2019-02-25T17:18:54.692Z,4.50
2019-02-25T17:21:26.594Z,4.67
2019-02-25T17:23:58.190Z,6.37
2019-02-25T17:26:29.048Z,7.53
2019-02-25T17:28:59.347Z,4.13
2019-02-25T17:31:30.606Z,2.37
2019-02-25T17:34:01.651Z,2.20
2019-02-25T17:36:31.949Z,2.07
2019-02-25T17:39:02.280Z,1.73
2019-02-25T17:41:33.624Z,2.17
2019-02-25T17:44:05.322Z,2.17
2019-02-25T17:46:37.015Z,1.80
2019-02-25T17:49:09.983Z,1.90
2019-02-25T17:51:40.524Z,1.77
2019-02-25T17:54:12.405Z,2.10
2019-02-25T17:56:44.786Z,2.40
2019-02-25T17:59:14.747Z,2.40
2019-02-25T18:01:46.304Z,2.40
2019-02-25T18:04:17.032Z,2.40
2019-02-25T18:06:47.604Z,2.17
2019-02-25T18:09:19.921Z,2.30
2019-02-25T18:11:49.903Z,2.83
2019-02-25T18:14:20.189Z,2.20
2019-02-25T18:16:51.293Z,2.57
2019-02-25T18:19:23.184Z,2.20
2019-02-25T18:21:53.741Z,2.40
2019-02-25T18:24:26.790Z,2.27
2019-02-25T18:26:56.032Z,2.60
2019-02-25T18:29:26.416Z,2.77
2019-02-25T18:31:57.020Z,2.63
2019-02-25T18:34:27.973Z,2.87
2019-02-25T18:36:59.425Z,2.63
2019-02-25T18:39:31.544Z,2.97
2019-02-25T18:42:01.697Z,2.70
2019-02-25T18:44:32.144Z,2.60
2019-02-25T18:47:02.476Z,3.70
2019-02-25T18:49:34.774Z,3.73
2019-02-25T18:52:04.947Z,3.40
2019-02-25T18:54:36.826Z,3.60
2019-02-25T18:57:07.712Z,4.07
2019-02-25T18:59:38.128Z,3.57
2019-02-25T19:02:10.289Z,3.97
2019-02-25T19:04:41.341Z,4.03
2019-02-25T19:07:12.775Z,4.43
2019-02-25T19:09:45.252Z,4.73
2019-02-25T19:12:15.247Z,5.30
2019-02-25T19:14:45.528Z,5.20
2019-02-25T19:17:15.919Z,4.90
2019-02-25T19:19:46.999Z,4.90
2019-02-25T19:22:19.542Z,5.00
2019-02-25T19:24:50.846Z,4.60
2019-02-25T19:27:21.263Z,4.80
2019-02-25T19:29:54.163Z,5.03
2019-02-25T19:35:25.821Z,4.93
2019-02-25T19:37:55.230Z,5.23
2019-02-25T19:40:25.905Z,5.47
2019-02-25T19:42:56.951Z,5.23
2019-02-25T19:45:28.353Z,4.90
2019-02-25T19:48:00.569Z,4.87
2019-02-25T19:50:32.388Z,5.07
2019-02-25T19:53:04.837Z,5.40
2019-02-25T19:55:36.165Z,5.23
2019-02-25T19:58:06.742Z,4.90
2019-02-25T20:00:37.030Z,4.70
2019-02-25T20:03:07.760Z,5.30
2019-02-25T20:05:43.471Z,4.40
2019-02-25T20:08:12.727Z,4.70
2019-02-25T20:10:43.013Z,4.67
2019-02-25T20:13:13.395Z,4.80
2019-02-25T20:15:44.394Z,4.77
2019-02-25T20:18:16.189Z,4.67
2019-02-25T20:20:47.996Z,5.00
2019-02-25T20:23:19.993Z,4.37
2019-02-25T20:25:51.134Z,4.87
2019-02-25T20:28:24.394Z,4.70
2019-02-25T20:30:55.800Z,4.40
2019-02-25T20:33:30.473Z,4.10
2019-02-25T20:35:58.899Z,4.20
2019-02-25T20:38:32.024Z,6.40
2019-02-25T20:41:02.491Z,8.60
2019-02-25T20:43:34.296Z,4.90
2019-02-25T20:46:06.022Z,5.07
2019-02-25T20:48:36.529Z,4.60
2019-02-25T20:51:07.793Z,4.90
2019-02-25T20:53:39.127Z,5.23
2019-02-25T20:56:09.440Z,5.00
2019-02-25T20:58:40.173Z,4.93
2019-02-25T21:01:13.590Z,4.93
2019-02-25T21:03:45.849Z,5.30
2019-02-25T21:06:16.853Z,4.73
2019-02-25T21:08:47.562Z,5.20
2019-02-25T21:11:20.788Z,5.17
2019-02-25T21:13:51.097Z,5.33
2019-02-25T21:16:21.384Z,6.13
2019-02-25T21:18:53.460Z,5.27
2019-02-25T21:21:23.607Z,5.40
2019-02-25T21:23:53.936Z,5.50
2019-02-25T21:26:27.401Z,5.57
2019-02-25T21:28:58.110Z,5.67
2019-02-25T21:31:28.254Z,5.67
2019-02-25T21:33:59.116Z,4.83
2019-02-25T21:36:32.181Z,5.10
2019-02-25T21:39:02.588Z,5.17
2019-02-25T21:41:34.852Z,5.40
2019-02-25T21:44:04.841Z,4.90
2019-02-25T21:46:35.281Z,4.30
2019-02-25T21:49:08.384Z,4.03
2019-02-25T21:51:41.509Z,3.63
2019-02-25T21:54:12.196Z,3.90
2019-02-25T21:56:42.487Z,3.87
2019-02-25T21:59:15.812Z,3.90
2019-02-25T22:01:47.092Z,3.70
2019-02-25T22:04:17.897Z,4.30
2019-02-25T22:06:51.189Z,3.80
2019-02-25T22:09:35.488Z,3.40
2019-02-25T22:11:54.209Z,3.97
2019-02-25T22:14:25.603Z,3.67
2019-02-25T22:16:58.761Z,3.77
2019-02-25T22:19:29.368Z,3.97
2019-02-25T22:22:00.948Z,3.50
2019-02-25T22:24:34.419Z,3.67
2019-02-25T22:27:04.542Z,3.83
2019-02-25T22:29:36.955Z,3.77
2019-02-25T22:32:08.824Z,3.93
2019-02-25T22:34:39.156Z,3.77
2019-02-25T22:37:12.465Z,4.20
2019-02-25T22:39:41.395Z,3.93
2019-02-25T22:42:13.771Z,4.00
2019-02-25T22:44:45.157Z,3.80
2019-02-25T22:47:18.392Z,3.33
2019-02-25T22:49:49.615Z,3.53
2019-02-25T22:52:22.160Z,3.57
2019-02-25T22:54:52.268Z,3.20
2019-02-25T22:57:23.182Z,3.50
2019-02-25T22:59:54.541Z,3.20
2019-02-25T23:02:27.862Z,3.90
2019-02-25T23:04:57.028Z,3.97
2019-02-25T23:07:27.308Z,3.50
2019-02-25T23:09:57.616Z,3.80
2019-02-25T23:12:29.430Z,3.80
2019-02-25T23:15:00.973Z,3.57
2019-02-25T23:17:35.044Z,3.70
2019-02-25T23:20:05.672Z,4.20
2019-02-25T23:22:36.633Z,4.10
2019-02-25T23:25:08.437Z,3.90
2019-02-25T23:27:38.991Z,4.13
2019-02-25T23:30:09.682Z,3.70
2019-02-25T23:32:40.303Z,4.27
2019-02-25T23:35:13.641Z,4.13
2019-02-25T23:37:45.103Z,3.93
2019-02-25T23:40:16.654Z,4.07
2019-02-25T23:42:48.995Z,4.17
2019-02-25T23:45:21.289Z,3.83
2019-02-25T23:47:55.314Z,3.97
2019-02-25T23:50:22.624Z,3.57
2019-02-25T23:52:52.895Z,3.90
2019-02-25T23:55:25.001Z,3.60
2019-02-25T23:57:55.084Z,3.83
